Wetterdaten: Woche 12.03.18 - 18.03.18 (KW11)
Datum Zeit Temp. Aussen Temp. o. S. +5cm Feuchte Auss BlattFeu 1 Luftdruck Regen Sonnenschein Regendauer Solar Windben Empfang
12.03.2018 00:00 9,0 C 8,3 C 5,1 C 92 % 3 lf 991,4 hPa 0,0 l/m 0,00 h 0,00 h 0 W/m 8,2 km/h (2 Bft) 92,43 %
12.03.2018 01:00 8,6 C 7,9 C 5,3 C 94 % 5 lf 991,3 hPa 0,0 l/m 0,00 h 0,00 h 0 W/m 8,9 km/h (2 Bft) 95,03 %
12.03.2018 02:00 8,2 C 7,8 C 5,9 C 95 % 6 lf 991,2 hPa 0,0 l/m 0,00 h 0,00 h 0 W/m 6,4 km/h (2 Bft) 95,77 %
12.03.2018 03:00 8,2 C 7,8 C 6,0 C 96 % 4 lf 990,8 hPa 0,0 l/m 0,00 h 0,00 h 0 W/m 8,4 km/h (2 Bft) 98,29 %
12.03.2018 04:00 8,3 C 8,0 C 6,5 C 97 % 3 lf 990,7 hPa 0,0 l/m 0,00 h 0,00 h 0 W/m 7,3 km/h (2 Bft) 95,35 %
12.03.2018 05:00 8,3 C 8,3 C 6,7 C 97 % 2 lf 990,6 hPa 0,0 l/m 0,00 h 0,00 h 0 W/m 7,0 km/h (2 Bft) 95,01 %
12.03.2018 06:00 8,4 C 8,3 C 7,1 C 97 % 2 lf 990,8 hPa 0,0 l/m 0,00 h 0,00 h 0 W/m 8,3 km/h (2 Bft) 98,49 %
12.03.2018 07:00 8,5 C 8,3 C 6,8 C 96 % 1 lf 991,1 hPa 0,0 l/m 0,00 h 0,43 h 12 W/m 7,3 km/h (2 Bft) 95,59 %
12.03.2018 08:00 8,7 C 8,6 C 7,5 C 96 % 4 lf 991,2 hPa 0,0 l/m 0,00 h 0,13 h 55 W/m 10,4 km/h (2 Bft) 95,51 %
12.03.2018 09:00 9,4 C 10,3 C 9,4 C 96 % 0 lf 991,3 hPa 0,0 l/m 0,00 h 0,10 h 105 W/m 12,4 km/h (3 Bft) 97,24 %
12.03.2018 10:00 10,9 C 13,2 C 12,3 C 94 % 0 lf 991,4 hPa 0,0 l/m 0,43 h 0,07 h 243 W/m 14,4 km/h (3 Bft) 95,76 %
12.03.2018 11:00 12,8 C 16,3 C 14,8 C 85 % 0 lf 991,6 hPa 0,0 l/m 0,60 h 0,00 h 375 W/m 22,1 km/h (4 Bft) 97,31 %
12.03.2018 12:00 15,2 C 20,7 C 15,7 C 70 % 0 lf 991,4 hPa 0,0 l/m 0,87 h 0,00 h 590 W/m 26,9 km/h (4 Bft) 96,95 %
12.03.2018 13:00 14,6 C 15,7 C 14,7 C 69 % 0 lf 991,2 hPa 0,0 l/m 0,20 h 0,00 h 238 W/m 27,0 km/h (4 Bft) 95,50 %
12.03.2018 14:00 14,2 C 15,1 C 14,1 C 68 % 0 lf 991,0 hPa 0,0 l/m 0,13 h 0,00 h 190 W/m 26,1 km/h (4 Bft) 95,34 %
12.03.2018 15:00 14,9 C 17,5 C 13,9 C 68 % 2 lf 990,9 hPa 0,0 l/m 0,67 h 0,10 h 343 W/m 29,2 km/h (5 Bft) 98,20 %
12.03.2018 16:00 13,8 C 14,3 C 11,3 C 75 % 0 lf 990,9 hPa 0,0 l/m 0,57 h 0,23 h 186 W/m 26,3 km/h (4 Bft) 96,60 %
12.03.2018 17:00 11,7 C 9,9 C 8,6 C 81 % 8 lf 991,4 hPa 0,2 l/m 0,70 h 0,30 h 77 W/m 24,3 km/h (4 Bft) 94,41 %
12.03.2018 18:00 11,4 C 10,9 C 9,0 C 79 % 4 lf 992,0 hPa 0,0 l/m 0,37 h 0,30 h 23 W/m 18,5 km/h (3 Bft) 96,92 %
12.03.2018 19:00 9,9 C 8,1 C 7,0 C 88 % 15 lf 992,6 hPa 0,2 l/m 0,00 h 0,23 h 0 W/m 16,9 km/h (3 Bft) 96,36 %
12.03.2018 20:00 9,7 C 8,7 C 7,3 C 89 % 5 lf 993,0 hPa 0,2 l/m 0,00 h 0,17 h 0 W/m 25,1 km/h (4 Bft) 97,94 %
12.03.2018 21:00 9,4 C 9,0 C 7,2 C 90 % 2 lf 993,5 hPa 0,0 l/m 0,00 h 0,00 h 0 W/m 21,0 km/h (4 Bft) 95,68 %
12.03.2018 22:00 9,5 C 9,3 C 7,7 C 89 % 1 lf 993,8 hPa 0,0 l/m 0,00 h 0,10 h 0 W/m 25,7 km/h (4 Bft) 94,86 %
12.03.2018 23:00 9,1 C 8,0 C 7,2 C 92 % 15 lf 994,0 hPa 0,2 l/m 0,00 h 0,50 h 0 W/m 19,2 km/h (3 Bft) 98,57 %
13.03.2018 00:00 8,8 C 7,9 C 7,1 C 94 % 15 lf 994,1 hPa 0,0 l/m 0,00 h 0,45 h 0 W/m 20,7 km/h (4 Bft) 96,01 %
13.03.2018 01:00 8,7 C 7,8 C 7,0 C 94 % 15 lf 994,2 hPa 0,2 l/m 0,00 h 0,70 h 0 W/m 24,6 km/h (4 Bft) 94,66 %
13.03.2018 02:00 8,7 C 7,8 C 6,7 C 94 % 15 lf 994,5 hPa 0,2 l/m 0,00 h 0,77 h 0 W/m 23,5 km/h (4 Bft) 97,72 %
13.03.2018 03:00 8,6 C 7,8 C 6,7 C 94 % 15 lf 994,5 hPa 0,0 l/m 0,00 h 0,70 h 0 W/m 23,2 km/h (4 Bft) 96,51 %
13.03.2018 04:00 8,4 C 7,5 C 6,7 C 94 % 15 lf 994,6 hPa 0,2 l/m 0,00 h 1,00 h 0 W/m 25,8 km/h (4 Bft) 96,34 %
13.03.2018 05:00 8,2 C 7,2 C 6,2 C 94 % 15 lf 995,0 hPa 0,4 l/m 0,00 h 0,90 h 0 W/m 23,1 km/h (4 Bft) 96,07 %
13.03.2018 06:00 7,9 C 7,2 C 6,1 C 95 % 15 lf 995,1 hPa 0,2 l/m 0,00 h 0,97 h 0 W/m 21,2 km/h (4 Bft) 93,98 %
13.03.2018 07:00 7,8 C 7,2 C 6,1 C 96 % 15 lf 995,4 hPa 0,2 l/m 0,00 h 0,70 h 13 W/m 22,3 km/h (4 Bft) 98,43 %
13.03.2018 08:00 7,3 C 6,5 C 5,8 C 95 % 15 lf 996,1 hPa 0,2 l/m 0,00 h 0,97 h 28 W/m 31,3 km/h (5 Bft) 97,35 %
13.03.2018 09:00 6,6 C 6,1 C 5,4 C 95 % 15 lf 997,0 hPa 0,4 l/m 0,00 h 1,00 h 47 W/m 28,6 km/h (4 Bft) 93,25 %
13.03.2018 10:00 6,4 C 6,1 C 5,2 C 96 % 15 lf 997,7 hPa 0,2 l/m 0,00 h 1,00 h 56 W/m 26,9 km/h (4 Bft) 97,77 %
13.03.2018 11:00 6,3 C 6,0 C 5,5 C 96 % 15 lf 999,0 hPa 0,6 l/m 0,00 h 1,00 h 84 W/m 27,4 km/h (4 Bft) 98,04 %
13.03.2018 12:00 5,9 C 5,6 C 5,1 C 97 % 15 lf 1000,6 hPa 0,8 l/m 0,00 h 0,77 h 84 W/m 29,1 km/h (5 Bft) 93,89 %
13.03.2018 13:00 5,8 C 5,6 C 5,0 C 97 % 15 lf 1001,9 hPa 0,4 l/m 0,00 h 0,93 h 72 W/m 26,4 km/h (4 Bft) 97,67 %
13.03.2018 14:00 5,0 C 4,6 C 4,1 C 97 % 15 lf 1003,5 hPa 0,6 l/m 0,00 h 1,00 h 56 W/m 32,4 km/h (5 Bft) 96,68 %
13.03.2018 15:00 4,7 C 4,5 C 4,0 C 97 % 15 lf 1004,9 hPa 0,2 l/m 0,00 h 0,93 h 70 W/m 28,2 km/h (4 Bft) 96,16 %
13.03.2018 16:00 4,7 C 4,4 C 3,9 C 97 % 15 lf 1006,1 hPa 0,4 l/m 0,00 h 0,27 h 24 W/m 24,4 km/h (4 Bft) 95,88 %
13.03.2018 17:00 4,9 C 4,4 C 3,9 C 97 % 15 lf 1007,2 hPa 0,4 l/m 0,00 h 0,90 h 19 W/m 16,5 km/h (3 Bft) 95,62 %
13.03.2018 18:00 4,7 C 4,2 C 3,5 C 97 % 15 lf 1008,2 hPa 0,4 l/m 0,00 h 1,00 h 10 W/m 12,8 km/h (3 Bft) 97,62 %
13.03.2018 19:00 4,6 C 4,2 C 3,3 C 97 % 15 lf 1009,1 hPa 0,8 l/m 0,00 h 1,00 h 0 W/m 14,1 km/h (3 Bft) 97,95 %
13.03.2018 20:00 4,2 C 3,9 C 3,3 C 97 % 15 lf 1009,7 hPa 0,8 l/m 0,00 h 0,40 h 0 W/m 9,8 km/h (2 Bft) 93,55 %
13.03.2018 21:00 4,3 C 3,9 C 3,3 C 97 % 15 lf 1010,0 hPa 0,2 l/m 0,00 h 0,00 h 0 W/m 9,9 km/h (2 Bft) 97,36 %
13.03.2018 22:00 4,5 C 4,2 C 3,3 C 97 % 15 lf 1010,4 hPa 0,2 l/m 0,00 h 0,20 h 0 W/m 14,8 km/h (3 Bft) 99,05 %
13.03.2018 23:00 4,4 C 3,9 C 3,3 C 97 % 15 lf 1010,7 hPa 0,0 l/m 0,00 h 0,00 h 0 W/m 12,8 km/h (3 Bft) 94,11 %
14.03.2018 00:00 4,4 C 3,9 C 3,3 C 97 % 15 lf 1011,0 hPa 0,0 l/m 0,00 h 0,00 h 0 W/m 12,4 km/h (3 Bft) 97,53 %
14.03.2018 01:00 4,4 C 3,9 C 3,3 C 97 % 15 lf 1011,1 hPa 0,0 l/m 0,00 h 0,00 h 0 W/m 8,7 km/h (2 Bft) 96,23 %
14.03.2018 02:00 4,4 C 4,1 C 3,3 C 97 % 15 lf 1011,0 hPa 0,0 l/m 0,00 h 0,00 h 0 W/m 5,7 km/h (1 Bft) 96,29 %
14.03.2018 03:00 4,6 C 4,4 C 3,3 C 97 % 15 lf 1010,9 hPa 0,0 l/m 0,00 h 0,00 h 0 W/m 3,9 km/h (1 Bft) 96,55 %
14.03.2018 04:00 4,7 C 4,4 C 3,3 C 98 % 15 lf 1011,0 hPa 0,0 l/m 0,00 h 0,00 h 0 W/m 3,5 km/h (1 Bft) 94,58 %
14.03.2018 05:00 4,6 C 3,9 C 2,8 C 98 % 15 lf 1011,2 hPa 0,0 l/m 0,00 h 0,00 h 0 W/m 7,4 km/h (2 Bft) 96,51 %
14.03.2018 06:00 3,7 C 2,1 C 0,5 C 97 % 15 lf 1011,3 hPa 0,0 l/m 0,00 h 0,00 h 5 W/m 2,0 km/h (1 Bft) 98,05 %
14.03.2018 07:00 2,8 C 2,4 C 1,0 C 97 % 15 lf 1011,6 hPa 0,0 l/m 0,00 h 0,00 h 29 W/m 5,0 km/h (1 Bft) 91,20 %
14.03.2018 08:00 3,5 C 3,9 C 3,2 C 98 % 14 lf 1011,9 hPa 0,0 l/m 0,03 h 0,00 h 84 W/m 7,5 km/h (2 Bft) 93,67 %
14.03.2018 09:00 4,4 C 8,0 C 5,4 C 98 % 0 lf 1011,9 hPa 0,0 l/m 0,77 h 0,00 h 271 W/m 4,9 km/h (1 Bft) 94,65 %
14.03.2018 10:00 6,7 C 16,0 C 10,7 C 98 % 0 lf 1011,9 hPa 0,0 l/m 1,00 h 0,00 h 506 W/m 9,7 km/h (2 Bft) 91,50 %
14.03.2018 11:00 9,1 C 18,4 C 13,3 C 82 % 0 lf 1011,8 hPa 0,0 l/m 1,00 h 0,00 h 573 W/m 8,9 km/h (2 Bft) 95,30 %
14.03.2018 12:00 10,8 C 17,5 C 11,1 C 73 % 0 lf 1011,0 hPa 0,0 l/m 0,97 h 0,00 h 578 W/m 11,8 km/h (2 Bft) 92,11 %
14.03.2018 13:00 11,7 C 17,6 C 11,0 C 67 % 0 lf 1010,1 hPa 0,0 l/m 0,87 h 0,00 h 557 W/m 14,6 km/h (3 Bft) 93,41 %
14.03.2018 14:00 11,7 C 16,8 C 10,5 C 66 % 0 lf 1008,8 hPa 0,0 l/m 0,83 h 0,00 h 481 W/m 14,4 km/h (3 Bft) 92,00 %
14.03.2018 15:00 12,0 C 15,8 C 11,1 C 64 % 0 lf 1008,0 hPa 0,0 l/m 0,97 h 0,00 h 442 W/m 18,2 km/h (3 Bft) 95,42 %
14.03.2018 16:00 11,9 C 12,5 C 9,9 C 62 % 0 lf 1007,3 hPa 0,0 l/m 1,00 h 0,00 h 258 W/m 17,5 km/h (3 Bft) 94,82 %
14.03.2018 17:00 11,5 C 11,2 C 9,1 C 62 % 0 lf 1006,8 hPa 0,0 l/m 0,63 h 0,00 h 89 W/m 17,7 km/h (3 Bft) 92,06 %
14.03.2018 18:00 10,3 C 9,5 C 7,4 C 65 % 0 lf 1006,3 hPa 0,0 l/m 0,00 h 0,00 h 13 W/m 17,7 km/h (3 Bft) 92,86 %
14.03.2018 19:00 9,1 C 8,3 C 6,3 C 70 % 0 lf 1005,7 hPa 0,0 l/m 0,00 h 0,00 h 0 W/m 17,3 km/h (3 Bft) 94,94 %
14.03.2018 20:00 8,0 C 7,1 C 5,0 C 74 % 0 lf 1005,1 hPa 0,0 l/m 0,00 h 0,00 h 0 W/m 13,8 km/h (3 Bft) 91,31 %
14.03.2018 21:00 6,6 C 5,5 C 3,4 C 79 % 0 lf 1004,5 hPa 0,0 l/m 0,00 h 0,00 h 0 W/m 12,9 km/h (3 Bft) 93,52 %
14.03.2018 22:00 6,3 C 6,3 C 4,5 C 81 % 0 lf 1003,7 hPa 0,0 l/m 0,00 h 0,00 h 0 W/m 23,0 km/h (4 Bft) 95,05 %
14.03.2018 23:00 6,4 C 5,9 C 4,2 C 81 % 0 lf 1003,2 hPa 0,0 l/m 0,00 h 0,00 h 0 W/m 23,6 km/h (4 Bft) 93,53 %
15.03.2018 00:00 5,6 C 5,1 C 3,3 C 82 % 0 lf 1002,5 hPa 0,0 l/m 0,00 h 0,00 h 0 W/m 21,6 km/h (4 Bft) 96,89 %
15.03.2018 01:00 5,0 C 4,6 C 2,7 C 83 % 0 lf 1001,6 hPa 0,0 l/m 0,00 h 0,00 h 0 W/m 22,5 km/h (4 Bft) 98,36 %
15.03.2018 02:00 5,1 C 4,9 C 3,2 C 83 % 0 lf 1000,8 hPa 0,0 l/m 0,00 h 0,00 h 0 W/m 33,2 km/h (5 Bft) 95,24 %
15.03.2018 03:00 5,0 C 4,9 C 3,2 C 83 % 0 lf 999,9 hPa 0,0 l/m 0,00 h 0,00 h 0 W/m 37,9 km/h (5 Bft) 97,50 %
15.03.2018 04:00 4,8 C 4,4 C 2,8 C 82 % 0 lf 999,1 hPa 0,0 l/m 0,00 h 0,00 h 0 W/m 35,7 km/h (5 Bft) 96,37 %
15.03.2018 05:00 4,6 C 4,4 C 2,8 C 81 % 0 lf 998,2 hPa 0,0 l/m 0,00 h 0,00 h 0 W/m 35,3 km/h (5 Bft) 96,45 %
15.03.2018 06:00 4,4 C 4,4 C 2,8 C 81 % 0 lf 997,5 hPa 0,0 l/m 0,00 h 0,00 h 14 W/m 33,2 km/h (5 Bft) 98,99 %
15.03.2018 07:00 4,6 C 5,2 C 3,4 C 81 % 0 lf 997,3 hPa 0,0 l/m 1,00 h 0,00 h 75 W/m 34,6 km/h (5 Bft) 94,65 %
15.03.2018 08:00 5,8 C 8,3 C 5,1 C 78 % 0 lf 997,0 hPa 0,0 l/m 0,83 h 0,00 h 209 W/m 38,7 km/h (5 Bft) 96,34 %
15.03.2018 09:00 7,1 C 9,7 C 7,5 C 75 % 0 lf 996,7 hPa 0,0 l/m 1,00 h 0,00 h 312 W/m 42,3 km/h (6 Bft) 97,23 %
15.03.2018 10:00 8,8 C 12,2 C 10,8 C 71 % 0 lf 996,1 hPa 0,0 l/m 1,00 h 0,00 h 417 W/m 40,6 km/h (6 Bft) 94,48 %
15.03.2018 11:00 10,1 C 11,6 C 11,4 C 68 % 0 lf 995,7 hPa 0,0 l/m 0,33 h 0,00 h 284 W/m 33,4 km/h (5 Bft) 96,14 %
15.03.2018 12:00 10,7 C 11,7 C 11,4 C 66 % 0 lf 995,3 hPa 0,0 l/m 0,00 h 0,00 h 217 W/m 28,1 km/h (4 Bft) 98,61 %
15.03.2018 13:00 11,3 C 12,2 C 12,1 C 65 % 0 lf 994,9 hPa 0,0 l/m 0,00 h 0,00 h 213 W/m 25,6 km/h (4 Bft) 94,17 %
15.03.2018 14:00 11,6 C 12,2 C 11,6 C 64 % 0 lf 994,5 hPa 0,0 l/m 0,00 h 0,00 h 150 W/m 21,7 km/h (4 Bft) 95,58 %
15.03.2018 15:00 11,7 C 12,1 C 11,6 C 63 % 0 lf 994,3 hPa 0,0 l/m 0,00 h 0,00 h 129 W/m 16,1 km/h (3 Bft) 97,54 %
15.03.2018 16:00 11,6 C 11,4 C 10,1 C 65 % 0 lf 994,3 hPa 0,0 l/m 0,00 h 0,00 h 53 W/m 10,1 km/h (2 Bft) 96,68 %
15.03.2018 17:00 11,2 C 11,0 C 9,4 C 63 % 0 lf 994,5 hPa 0,0 l/m 0,00 h 0,00 h 31 W/m 16,7 km/h (3 Bft) 95,22 %
15.03.2018 18:00 10,7 C 10,1 C 8,1 C 66 % 0 lf 994,9 hPa 0,0 l/m 0,00 h 0,13 h 7 W/m 11,5 km/h (2 Bft) 96,95 %
15.03.2018 19:00 9,9 C 8,1 C 6,2 C 75 % 2 lf 995,6 hPa 0,4 l/m 0,00 h 0,80 h 0 W/m 16,7 km/h (3 Bft) 96,01 %
15.03.2018 20:00 8,3 C 6,2 C 5,6 C 87 % 12 lf 996,0 hPa 0,6 l/m 0,00 h 1,00 h 0 W/m 15,0 km/h (3 Bft) 98,08 %
15.03.2018 21:00 7,3 C 6,1 C 5,2 C 92 % 15 lf 996,0 hPa 1,0 l/m 0,00 h 1,00 h 0 W/m 21,8 km/h (4 Bft) 95,16 %
15.03.2018 22:00 6,9 C 6,1 C 5,0 C 94 % 15 lf 996,1 hPa 0,8 l/m 0,00 h 0,73 h 0 W/m 14,2 km/h (3 Bft) 94,88 %
15.03.2018 23:00 6,7 C 6,1 C 5,0 C 95 % 15 lf 996,0 hPa 0,6 l/m 0,00 h 0,10 h 0 W/m 14,2 km/h (3 Bft) 98,36 %
16.03.2018 00:00 6,6 C 6,1 C 5,0 C 95 % 12 lf 996,1 hPa 0,2 l/m 0,00 h 0,00 h 0 W/m 12,7 km/h (3 Bft) 96,87 %
16.03.2018 01:00 6,6 C 6,1 C 5,0 C 95 % 4 lf 996,3 hPa 0,2 l/m 0,00 h 0,03 h 0 W/m 10,8 km/h (2 Bft) 95,16 %
16.03.2018 02:00 6,6 C 5,7 C 5,0 C 95 % 6 lf 996,5 hPa 0,0 l/m 0,00 h 0,33 h 0 W/m 8,2 km/h (2 Bft) 97,51 %
16.03.2018 03:00 6,3 C 5,6 C 4,5 C 95 % 2 lf 996,4 hPa 0,2 l/m 0,00 h 0,00 h 0 W/m 6,6 km/h (2 Bft) 95,23 %
16.03.2018 04:00 6,2 C 5,6 C 4,6 C 96 % 0 lf 996,8 hPa 0,0 l/m 0,00 h 0,00 h 0 W/m 7,2 km/h (2 Bft) 97,72 %
16.03.2018 05:00 6,2 C 5,9 C 4,9 C 96 % 0 lf 997,2 hPa 0,0 l/m 0,00 h 0,00 h 0 W/m 4,3 km/h (1 Bft) 96,95 %
16.03.2018 06:00 6,4 C 6,1 C 5,0 C 96 % 0 lf 997,7 hPa 0,0 l/m 0,00 h 0,00 h 3 W/m 2,9 km/h (1 Bft) 93,58 %
16.03.2018 07:00 6,5 C 6,3 C 5,4 C 96 % 0 lf 998,2 hPa 0,0 l/m 0,00 h 0,00 h 26 W/m 4,2 km/h (1 Bft) 98,65 %
16.03.2018 08:00 6,9 C 7,0 C 6,2 C 97 % 0 lf 998,7 hPa 0,0 l/m 0,00 h 0,00 h 56 W/m 5,2 km/h (1 Bft) 97,28 %
16.03.2018 09:00 7,4 C 7,8 C 6,8 C 97 % 0 lf 999,3 hPa 0,0 l/m 0,00 h 0,00 h 63 W/m 9,3 km/h (2 Bft) 94,01 %
16.03.2018 10:00 7,5 C 7,8 C 6,7 C 96 % 0 lf 999,7 hPa 0,0 l/m 0,00 h 0,00 h 57 W/m 13,0 km/h (3 Bft) 97,23 %
16.03.2018 11:00 7,4 C 7,3 C 6,7 C 95 % 11 lf 1000,2 hPa 0,0 l/m 0,00 h 0,60 h 77 W/m 14,5 km/h (3 Bft) 97,51 %
16.03.2018 12:00 7,1 C 6,8 C 6,3 C 95 % 15 lf 1000,7 hPa 0,2 l/m 0,00 h 0,33 h 89 W/m 14,9 km/h (3 Bft) 94,48 %
16.03.2018 13:00 6,2 C 5,7 C 5,3 C 95 % 15 lf 1001,2 hPa 0,2 l/m 0,00 h 0,57 h 51 W/m 17,9 km/h (3 Bft) 96,32 %
16.03.2018 14:00 5,8 C 5,5 C 5,0 C 96 % 15 lf 1001,5 hPa 1,8 l/m 0,00 h 1,00 h 57 W/m 13,0 km/h (3 Bft) 96,06 %
16.03.2018 15:00 5,9 C 5,8 C 5,4 C 96 % 15 lf 1001,7 hPa 0,6 l/m 0,00 h 0,63 h 93 W/m 18,1 km/h (3 Bft) 96,60 %
16.03.2018 16:00 5,2 C 4,6 C 4,2 C 96 % 15 lf 1002,0 hPa 0,0 l/m 0,00 h 0,00 h 38 W/m 22,6 km/h (4 Bft) 97,51 %
16.03.2018 17:00 4,3 C 3,7 C 3,2 C 96 % 15 lf 1002,5 hPa 0,0 l/m 0,00 h 0,03 h 20 W/m 23,7 km/h (4 Bft) 94,15 %
16.03.2018 18:00 3,5 C 2,8 C 2,4 C 95 % 15 lf 1003,1 hPa 0,4 l/m 0,00 h 0,73 h 9 W/m 26,0 km/h (4 Bft) 96,71 %
16.03.2018 19:00 2,6 C 1,9 C 1,7 C 95 % 15 lf 1003,8 hPa 0,4 l/m 0,00 h 0,53 h 0 W/m 28,4 km/h (4 Bft) 97,13 %
16.03.2018 20:00 2,1 C 1,4 C 1,0 C 95 % 15 lf 1004,4 hPa 0,0 l/m 0,00 h 0,37 h 0 W/m 29,0 km/h (5 Bft) 96,30 %
16.03.2018 21:00 1,6 C 1,1 C 0,7 C 94 % 14 lf 1004,6 hPa 0,0 l/m 0,00 h 0,00 h 0 W/m 28,8 km/h (5 Bft) 94,51 %
16.03.2018 22:00 1,2 C 0,6 C 0,1 C 93 % 4 lf 1004,9 hPa 0,0 l/m 0,00 h 0,00 h 0 W/m 31,8 km/h (5 Bft) 97,24 %
16.03.2018 23:00 0,9 C 0,5 C -0,2 C 92 % 0 lf 1005,0 hPa 0,0 l/m 0,00 h 0,00 h 0 W/m 29,4 km/h (5 Bft) 96,84 %
17.03.2018 00:00 0,7 C 0,0 C -0,6 C 90 % 0 lf 1005,0 hPa 0,0 l/m 0,00 h 0,00 h 0 W/m 32,1 km/h (5 Bft) 98,07 %
17.03.2018 01:00 0,4 C 0,0 C -0,8 C 89 % 0 lf 1005,0 hPa 0,0 l/m 0,00 h 0,00 h 0 W/m 33,0 km/h (5 Bft) 94,04 %
17.03.2018 02:00 0,1 C -0,0 C -1,1 C 89 % 0 lf 1004,9 hPa 0,0 l/m 0,00 h 0,00 h 0 W/m 37,8 km/h (5 Bft) 96,76 %
17.03.2018 03:00 -0,4 C -0,7 C -1,2 C 89 % 0 lf 1004,6 hPa 0,0 l/m 0,00 h 0,00 h 0 W/m 35,3 km/h (5 Bft) 95,36 %
17.03.2018 04:00 -1,0 C -1,5 C -2,1 C 91 % 0 lf 1004,7 hPa 0,0 l/m 0,00 h 0,00 h 0 W/m 31,8 km/h (5 Bft) 98,13 %
17.03.2018 05:00 -1,3 C -1,5 C -2,2 C 91 % 0 lf 1004,5 hPa 0,0 l/m 0,00 h 0,00 h 0 W/m 35,3 km/h (5 Bft) 96,66 %
17.03.2018 06:00 -1,6 C -1,8 C -2,7 C 90 % 0 lf 1004,4 hPa 0,0 l/m 0,00 h 0,00 h 4 W/m 35,8 km/h (5 Bft) 94,72 %
17.03.2018 07:00 -1,9 C -1,9 C -2,8 C 90 % 0 lf 1004,5 hPa 0,2 l/m 0,00 h 0,00 h 14 W/m 40,6 km/h (6 Bft) 98,38 %
17.03.2018 08:00 -2,4 C -2,2 C -3,1 C 90 % 0 lf 1004,7 hPa 0,2 l/m 0,00 h 0,00 h 31 W/m 36,2 km/h (5 Bft) 95,08 %
17.03.2018 09:00 -2,6 C -2,2 C -2,9 C 90 % 0 lf 1004,7 hPa 0,2 l/m 0,00 h 0,00 h 82 W/m 36,3 km/h (5 Bft) 96,54 %
17.03.2018 10:00 -2,6 C -1,9 C -2,2 C 91 % 0 lf 1004,8 hPa 0,2 l/m 0,00 h 0,00 h 151 W/m 41,1 km/h (6 Bft) 97,44 %
17.03.2018 11:00 -2,2 C -1,0 C -1,3 C 90 % 2 lf 1004,7 hPa 0,2 l/m 0,07 h 0,03 h 248 W/m 40,6 km/h (6 Bft) 96,08 %
17.03.2018 12:00 -1,7 C 0,1 C -1,0 C 88 % 14 lf 1004,7 hPa 0,0 l/m 0,83 h 0,03 h 339 W/m 44,7 km/h (6 Bft) 97,21 %
17.03.2018 13:00 -1,7 C -0,8 C -1,3 C 86 % 1 lf 1004,4 hPa 0,0 l/m 0,10 h 0,03 h 226 W/m 46,6 km/h (6 Bft) 96,01 %
17.03.2018 14:00 -1,9 C -1,3 C -1,5 C 83 % 0 lf 1004,0 hPa 0,0 l/m 0,00 h 0,00 h 160 W/m 42,6 km/h (6 Bft) 95,87 %
17.03.2018 15:00 -2,0 C -1,7 C -2,2 C 80 % 0 lf 1004,1 hPa 0,0 l/m 0,00 h 0,00 h 87 W/m 40,9 km/h (6 Bft) 98,74 %
17.03.2018 16:00 -2,1 C -2,0 C -2,3 C 79 % 0 lf 1004,1 hPa 0,0 l/m 0,00 h 0,00 h 64 W/m 40,0 km/h (6 Bft) 95,20 %
17.03.2018 17:00 -2,2 C -2,2 C -2,7 C 79 % 0 lf 1004,3 hPa 0,0 l/m 0,00 h 0,00 h 32 W/m 38,4 km/h (5 Bft) 95,25 %
17.03.2018 18:00 -2,4 C -2,6 C -3,2 C 79 % 0 lf 1004,9 hPa 0,0 l/m 0,00 h 0,00 h 8 W/m 35,4 km/h (5 Bft) 98,29 %
17.03.2018 19:00 -2,6 C -2,5 C -3,3 C 78 % 0 lf 1005,3 hPa 0,0 l/m 0,00 h 0,00 h 0 W/m 34,8 km/h (5 Bft) 96,80 %
17.03.2018 20:00 -2,5 C -2,5 C -3,3 C 77 % 0 lf 1005,6 hPa 0,0 l/m 0,00 h 0,00 h 0 W/m 35,0 km/h (5 Bft) 95,38 %
17.03.2018 21:00 -2,4 C -2,2 C -3,3 C 75 % 0 lf 1006,0 hPa 0,0 l/m 0,00 h 0,00 h 0 W/m 37,1 km/h (5 Bft) 96,15 %
17.03.2018 22:00 -2,3 C -2,2 C -3,3 C 75 % 0 lf 1006,0 hPa 0,0 l/m 0,00 h 0,00 h 0 W/m 34,2 km/h (5 Bft) 95,23 %
17.03.2018 23:00 -2,4 C -2,4 C -3,3 C 76 % 0 lf 1006,0 hPa 0,0 l/m 0,00 h 0,00 h 0 W/m 33,0 km/h (5 Bft) 98,72 %
18.03.2018 00:00 -2,3 C -2,2 C -3,3 C 76 % 0 lf 1006,1 hPa 0,0 l/m 0,00 h 0,00 h 0 W/m 32,1 km/h (5 Bft) 93,87 %
18.03.2018 01:00 -2,2 C -2,2 C -3,3 C 77 % 0 lf 1006,2 hPa 0,0 l/m 0,00 h 0,00 h 0 W/m 31,4 km/h (5 Bft) 96,65 %
18.03.2018 02:00 -2,2 C -2,2 C -3,3 C 76 % 0 lf 1006,2 hPa 0,0 l/m 0,00 h 0,00 h 0 W/m 31,2 km/h (5 Bft) 97,79 %
18.03.2018 03:00 -2,3 C -2,2 C -3,3 C 75 % 0 lf 1006,1 hPa 0,0 l/m 0,00 h 0,00 h 0 W/m 31,1 km/h (5 Bft) 95,73 %
18.03.2018 04:00 -2,4 C -2,3 C -3,3 C 75 % 0 lf 1006,0 hPa 0,0 l/m 0,00 h 0,00 h 0 W/m 32,2 km/h (5 Bft) 95,68 %
18.03.2018 05:00 -2,3 C -2,3 C -3,4 C 73 % 0 lf 1006,1 hPa 0,0 l/m 0,00 h 0,00 h 0 W/m 36,0 km/h (5 Bft) 97,53 %
18.03.2018 06:00 -2,5 C -2,4 C -3,4 C 72 % 0 lf 1006,3 hPa 0,0 l/m 0,00 h 0,00 h 4 W/m 35,4 km/h (5 Bft) 96,08 %
18.03.2018 07:00 -2,4 C -2,2 C -3,3 C 71 % 0 lf 1006,8 hPa 0,0 l/m 0,00 h 0,00 h 14 W/m 40,0 km/h (6 Bft) 96,16 %
18.03.2018 08:00 -2,5 C -2,3 C -2,9 C 73 % 0 lf 1007,4 hPa 0,0 l/m 0,00 h 0,00 h 30 W/m 35,6 km/h (5 Bft) 95,72 %
18.03.2018 09:00 -2,8 C -2,2 C -2,4 C 80 % 0 lf 1007,9 hPa 0,0 l/m 0,00 h 0,00 h 87 W/m 36,2 km/h (5 Bft) 96,87 %
18.03.2018 10:00 -2,7 C -2,0 C -1,9 C 83 % 0 lf 1008,2 hPa 0,0 l/m 0,00 h 0,00 h 133 W/m 32,9 km/h (5 Bft) 96,51 %
18.03.2018 11:00 -2,0 C 1,2 C 0,4 C 86 % 4 lf 1008,3 hPa 0,2 l/m 0,40 h 0,00 h 312 W/m 29,6 km/h (5 Bft) 96,02 %
18.03.2018 12:00 -0,3 C 2,5 C 1,5 C 73 % 0 lf 1008,3 hPa 0,0 l/m 0,43 h 0,00 h 318 W/m 39,6 km/h (6 Bft) 96,56 %
18.03.2018 13:00 0,8 C 3,8 C 2,4 C 66 % 0 lf 1008,1 hPa 0,0 l/m 0,47 h 0,00 h 316 W/m 39,7 km/h (6 Bft) 95,65 %
18.03.2018 14:00 1,3 C 3,3 C 2,4 C 64 % 0 lf 1007,7 hPa 0,0 l/m 0,10 h 0,00 h 229 W/m 41,9 km/h (6 Bft) 97,79 %
18.03.2018 15:00 1,8 C 3,6 C 2,2 C 62 % 0 lf 1007,4 hPa 0,0 l/m 0,10 h 0,00 h 176 W/m 39,9 km/h (6 Bft) 95,91 %
18.03.2018 16:00 1,8 C 2,2 C 1,3 C 60 % 0 lf 1007,4 hPa 0,0 l/m 0,00 h 0,00 h 95 W/m 38,4 km/h (5 Bft) 95,63 %
18.03.2018 17:00 0,8 C 1,0 C -0,1 C 61 % 0 lf 1008,0 hPa 0,0 l/m 0,00 h 0,00 h 54 W/m 36,6 km/h (5 Bft) 96,86 %
18.03.2018 18:00 0,3 C 0,1 C -1,2 C 63 % 0 lf 1008,7 hPa 0,0 l/m 0,00 h 0,00 h 17 W/m 33,6 km/h (5 Bft) 97,22 %
18.03.2018 19:00 -0,3 C -0,6 C -1,8 C 63 % 0 lf 1009,6 hPa 0,0 l/m 0,00 h 0,00 h 0 W/m 28,8 km/h (4 Bft) 95,43 %
18.03.2018 20:00 -0,6 C -0,9 C -2,4 C 61 % 0 lf 1010,1 hPa 0,0 l/m 0,00 h 0,00 h 0 W/m 28,2 km/h (4 Bft) 96,23 %
18.03.2018 21:00 -1,0 C -1,1 C -2,6 C 60 % 0 lf 1010,4 hPa 0,0 l/m 0,00 h 0,00 h 0 W/m 28,5 km/h (4 Bft) 94,89 %
18.03.2018 22:00 -1,2 C -1,5 C -2,9 C 59 % 0 lf 1010,7 hPa 0,0 l/m 0,00 h 0,00 h 0 W/m 23,7 km/h (4 Bft) 98,01 %
18.03.2018 23:00 -1,6 C -2,0 C -3,3 C 60 % 0 lf 1010,6 hPa 0,0 l/m 0,00 h 0,00 h 0 W/m 21,0 km/h (4 Bft) 96,99 %
Min-Datum _ 18.03.18 17.03.18 17.03.18 18.03.18 12.03.18 12.03.18 - - - - 14.03.18 12.03.18
_ Min-Zeit 09:02 08:42 23:14 21:54 09:20 05:12 - - - - 02:24 00:02
Minimum _ -2,8 C -2,8 C -3,9 C 58 % 0 lf 990,5 hPa - - - - 0,0 km/h (0 Bft) 13,33 %
Max-Datum _ 12.03.18 12.03.18 12.03.18 14.03.18 12.03.18 14.03.18 16.03.18 15.03.18 13.03.18 12.03.18 15.03.18 12.03.18
_ Max-Zeit 12:36 12:22 11:46 10:12 15:54 08:50 14:02 09:08 05:40 12:36 09:00 00:10
Maximum _ 15,7 C 23,9 C 17,8 C 99 % 15 lf 1012,1 hPa 1,8 l/m 0,07 h 0,08 h 786 W/m 65,3 km/h
O-SO (8 Bft)
100,00 %
Durchschnitt _ 4,9 C 5,2 C 3,9 C 85 % 5 lf 1001,7 hPa #17,6 l/m #19:16 h #29:19 h 145 W/m 23,4 km/h (4 Bft) 96,07 %
© 2018 W. Hausmann